Time;durP1;ratioP1;P1;durP2;ratioP2;P2;SDS_P1;SDS_P2;PMS_P1;PMS_P2;Temp;Humidity;BMP_temperature;BMP_pressure;BME280_temperature;BME280_humidity;BME280_pressure;Samples;Min_cycle;Max_cycle;Signal;HPM_P1;HPM_P2
2020/12/15 00:00:39;;;;;;;7.27;4.73;;;;;;;;;;4995640;28;20853;-82
2020/12/15 00:03:06;;;;;;;5.23;4.53;;;;;;;;;;4995335;28;20472;-82
2020/12/15 00:05:32;;;;;;;4.27;3.43;;;;;;;;;;4995907;28;20451;-81
2020/12/15 00:07:59;;;;;;;8.23;4.13;;;;;;;;;;4996857;28;20445;-83
2020/12/15 00:10:26;;;;;;;3.30;2.83;;;5.00;99.90;;;;;;4995162;28;20499;-83
2020/12/15 00:12:53;;;;;;;3.03;2.73;;;;;;;;;;4995415;28;20449;-82
2020/12/15 00:15:19;;;;;;;3.63;2.47;;;;;;;;;;4995436;28;20457;-82
2020/12/15 00:17:45;;;;;;;3.87;2.63;;;6.00;99.90;;;;;;4995173;28;20463;-83
2020/12/15 00:20:12;;;;;;;3.87;2.60;;;6.30;99.90;;;;;;4995329;28;20453;-83
2020/12/15 00:22:38;;;;;;;4.97;2.00;;;6.20;99.90;;;;;;4994019;28;20503;-83
2020/12/15 00:25:05;;;;;;;3.30;2.20;;;6.50;99.90;;;;;;4995139;28;20808;-82
2020/12/15 00:27:32;;;;;;;3.37;2.50;;;6.60;99.90;;;;;;4995346;28;20444;-82
2020/12/15 00:29:59;;;;;;;4.67;2.80;;;6.20;99.90;;;;;;4995325;28;20447;-82
2020/12/15 00:32:25;;;;;;;3.10;2.50;;;6.40;99.90;;;;;;4995210;28;20452;-82
2020/12/15 00:34:52;;;;;;;2.23;1.60;;;6.80;99.90;;;;;;4995352;28;20445;-82
2020/12/15 00:37:18;;;;;;;2.57;2.13;;;;;;;;;;4993993;28;20445;-84
2020/12/15 00:39:45;;;;;;;1.90;1.63;;;;;;;;;;4994978;28;20452;-82
2020/12/15 00:42:11;;;;;;;2.57;1.80;;;7.00;99.90;;;;;;4995096;28;20489;-82
2020/12/15 00:44:38;;;;;;;5.93;2.00;;;6.80;99.90;;;;;;4995027;28;20442;-84
2020/12/15 00:47:05;;;;;;;2.57;2.33;;;;;;;;;;4994709;28;20442;-82
2020/12/15 00:49:31;;;;;;;3.77;2.23;;;7.00;99.90;;;;;;4994653;28;20477;-83
2020/12/15 00:51:57;;;;;;;2.70;2.20;;;6.90;99.90;;;;;;4993560;28;20450;-82
2020/12/15 00:54:23;;;;;;;2.57;1.90;;;7.00;99.90;;;;;;4994852;28;20446;-82
2020/12/15 00:56:50;;;;;;;2.93;1.60;;;;;;;;;;4994787;28;20455;-82
2020/12/15 00:59:17;;;;;;;2.73;1.90;;;7.10;99.90;;;;;;4994623;28;20537;-82
2020/12/15 01:01:44;;;;;;;3.37;2.07;;;6.80;99.90;;;;;;4994620;28;20498;-82
2020/12/15 01:04:10;;;;;;;2.43;1.90;;;;;;;;;;4994636;28;20473;-82
2020/12/15 01:06:37;;;;;;;2.70;1.67;;;;;;;;;;4993581;28;20454;-82
2020/12/15 01:09:05;;;;;;;2.10;1.90;;;6.90;99.90;;;;;;4994231;28;20489;-82
2020/12/15 01:11:31;;;;;;;2.40;2.10;;;6.90;99.90;;;;;;4991587;28;20510;-83
2020/12/15 01:13:58;;;;;;;3.23;2.10;;;;;;;;;;4994897;28;20469;-84
2020/12/15 01:16:24;;;;;;;1.77;1.63;;;;;;;;;;4994284;28;20452;-82
2020/12/15 01:18:52;;;;;;;2.23;2.03;;;7.20;99.90;;;;;;4994261;28;20454;-82
2020/12/15 01:21:25;;;;;;;2.80;2.20;;;6.80;99.90;;;;;;4990074;28;20488;-82
2020/12/15 01:23:52;;;;;;;2.60;2.10;;;7.10;99.90;;;;;;4994290;28;20455;-82
2020/12/15 01:26:18;;;;;;;2.00;1.80;;;;;;;;;;4994167;28;20461;-82
2020/12/15 01:28:45;;;;;;;3.40;2.20;;;;;;;;;;4994024;28;20457;-82
2020/12/15 01:31:11;;;;;;;2.30;1.97;;;7.20;99.90;;;;;;4994188;28;20450;-82
2020/12/15 01:33:37;;;;;;;3.07;1.97;;;7.30;99.90;;;;;;4993948;28;20461;-84
2020/12/15 01:36:05;;;;;;;4.70;2.20;;;6.50;99.90;;;;;;4992023;28;20451;-82
2020/12/15 01:38:31;;;;;;;3.97;3.57;;;;;;;;;;4993956;28;20449;-83
2020/12/15 01:40:58;;;;;;;5.23;4.30;;;6.90;99.90;;;;;;4990765;28;20483;-83
2020/12/15 01:43:24;;;;;;;4.50;3.00;;;;;;;;;;4989791;28;20454;-82
2020/12/15 01:45:51;;;;;;;4.53;3.57;;;;;;;;;;4993740;28;20446;-82
2020/12/15 01:48:17;;;;;;;6.30;4.50;;;6.60;99.90;;;;;;4994154;28;20447;-85
2020/12/15 01:50:43;;;;;;;4.30;3.27;;;;;;;;;;4993722;28;20959;-81
2020/12/15 01:53:12;;;;;;;7.27;5.90;;;6.30;99.90;;;;;;4992558;28;20445;-83
2020/12/15 01:55:39;;;;;;;4.93;3.20;;;6.30;99.90;;;;;;4993740;28;20447;-82
2020/12/15 01:58:07;;;;;;;4.60;3.23;;;6.30;99.90;;;;;;4993711;28;20453;-82
2020/12/15 02:00:33;;;;;;;4.13;3.67;;;6.00;99.90;;;;;;4993671;28;20456;-84
2020/12/15 02:03:00;;;;;;;3.90;3.33;;;;;;;;;;4993576;28;20447;-82
2020/12/15 02:05:26;;;;;;;3.30;3.00;;;;;;;;;;4993654;28;20593;-83
2020/12/15 02:07:53;;;;;;;3.57;3.23;;;5.70;99.90;;;;;;4992525;28;20465;-83
2020/12/15 02:10:20;;;;;;;3.47;3.00;;;6.00;99.90;;;;;;4993537;28;20473;-83
2020/12/15 02:12:47;;;;;;;3.60;2.23;;;;;;;;;;4993740;28;20956;-82
2020/12/15 02:15:14;;;;;;;2.30;1.67;;;;;;;;;;4993542;28;20444;-82
2020/12/15 02:17:40;;;;;;;2.47;2.00;;;;;;;;;;4993665;28;20451;-82
2020/12/15 02:20:08;;;;;;;3.63;2.20;;;6.30;99.90;;;;;;4993564;28;20809;-82
2020/12/15 02:22:35;;;;;;;1.73;1.63;;;6.60;99.90;;;;;;4992251;28;20862;-83
2020/12/15 02:25:04;;;;;;;2.83;2.13;;;6.80;99.90;;;;;;4993390;28;20454;-82
2020/12/15 02:27:30;;;;;;;2.80;1.83;;;;;;;;;;4993355;28;20945;-82
2020/12/15 02:29:57;;;;;;;2.10;1.80;;;6.90;99.90;;;;;;4993381;28;20478;-83
2020/12/15 02:32:23;;;;;;;2.80;1.80;;;;;;;;;;4993440;28;20822;-83
2020/12/15 02:34:54;;;;;;;1.63;1.53;;;7.30;99.90;;;;;;4993266;28;20466;-83
2020/12/15 02:37:21;;;;;;;1.90;1.37;;;;;;;;;;4992349;28;20458;-83
2020/12/15 02:39:48;;;;;;;1.33;1.17;;;7.60;99.90;;;;;;4993248;28;20458;-82
2020/12/15 02:42:14;;;;;;;1.83;1.53;;;;;;;;;;4993778;28;20503;-83
2020/12/15 02:44:41;;;;;;;4.27;2.80;;;7.40;99.90;;;;;;4993682;28;20460;-83
2020/12/15 02:47:07;;;;;;;4.50;3.50;;;;;;;;;;4994867;28;20443;-82
2020/12/15 02:49:33;;;;;;;3.40;3.00;;;6.80;99.90;;;;;;4997170;28;20453;-83
2020/12/15 02:52:00;;;;;;;3.87;3.00;;;;;;;;;;4995714;28;20944;-83
2020/12/15 02:54:26;;;;;;;5.53;3.70;;;6.90;99.90;;;;;;4997016;28;20974;-82
2020/12/15 02:56:55;;;;;;;3.20;2.83;;;7.20;99.90;;;;;;4997118;28;20461;-84
2020/12/15 02:59:21;;;;;;;4.10;3.23;;;;;;;;;;4997183;28;20464;-82
2020/12/15 03:01:51;;;;;;;4.87;3.20;;;;;;;;;;4996873;28;20499;-83
2020/12/15 03:04:18;;;;;;;3.47;3.07;;;6.50;99.90;;;;;;4996864;28;20484;-83
2020/12/15 03:06:44;;;;;;;3.43;2.90;;;6.50;99.90;;;;;;4995478;28;20449;-84
2020/12/15 03:09:10;;;;;;;3.53;2.80;;;6.50;99.90;;;;;;4996510;28;20485;-82
2020/12/15 03:11:37;;;;;;;3.70;3.27;;;6.90;99.90;;;;;;4996795;28;20450;-83
2020/12/15 03:14:04;;;;;;;3.97;3.20;;;6.80;99.90;;;;;;4996623;28;20447;-82
2020/12/15 03:16:31;;;;;;;4.70;2.87;;;6.40;99.90;;;;;;4996775;28;20553;-83
2020/12/15 03:18:57;;;;;;;4.87;2.90;;;6.50;99.90;;;;;;4996305;28;20438;-83
2020/12/15 03:21:24;;;;;;;4.53;3.63;;;;;;;;;;4995085;28;20500;-84
2020/12/15 03:23:50;;;;;;;6.13;3.80;;;6.30;99.90;;;;;;4996615;28;20538;-84
2020/12/15 03:26:17;;;;;;;5.30;3.60;;;6.30;99.90;;;;;;4996467;28;20461;-82
2020/12/15 03:28:43;;;;;;;5.00;3.27;;;6.20;99.90;;;;;;4996463;28;20843;-84
2020/12/15 03:31:10;;;;;;;4.47;3.53;;;6.40;99.90;;;;;;4996387;28;20458;-83
2020/12/15 03:33:37;;;;;;;7.40;3.50;;;;;;;;;;4996467;28;20453;-83
2020/12/15 03:36:03;;;;;;;7.10;2.90;;;6.40;99.90;;;;;;4995136;28;20449;-81
2020/12/15 03:38:30;;;;;;;4.50;3.17;;;6.20;99.90;;;;;;4996254;28;20457;-83
2020/12/15 03:40:56;;;;;;;5.07;3.43;;;;;;;;;;4996245;28;20450;-83
2020/12/15 03:43:23;;;;;;;5.70;3.43;;;;;;;;;;4996097;28;20452;-84
2020/12/15 03:45:49;;;;;;;4.83;3.00;;;;;;;;;;4997309;28;20462;-83
2020/12/15 03:48:16;;;;;;;3.87;3.47;;;6.00;99.90;;;;;;4995992;28;21060;-82
2020/12/15 03:50:43;;;;;;;3.50;3.00;;;6.10;99.90;;;;;;4995938;28;20446;-82
2020/12/15 03:53:09;;;;;;;3.80;3.30;;;6.10;99.90;;;;;;4994593;28;20979;-83
2020/12/15 03:55:35;;;;;;;4.10;3.17;;;6.00;99.90;;;;;;4995899;28;20963;-84
2020/12/15 03:58:01;;;;;;;3.37;3.07;;;5.90;99.90;;;;;;4994915;28;20447;-83
2020/12/15 04:00:27;;;;;;;6.80;3.20;;;5.90;99.90;;;;;;4995706;28;20476;-83
2020/12/15 04:02:54;;;;;;;5.73;3.10;;;;;;;;;;4995495;28;20498;-83
2020/12/15 04:05:22;;;;;;;4.00;3.00;;;6.20;99.90;;;;;;4995272;28;20504;-84
2020/12/15 04:07:48;;;;;;;3.10;2.70;;;5.90;99.90;;;;;;4994337;28;20473;-82
2020/12/15 04:10:17;;;;;;;4.00;3.30;;;6.10;99.90;;;;;;4995618;28;21096;-83
2020/12/15 04:12:44;;;;;;;3.63;2.57;;;;;;;;;;4995937;28;20454;-83
2020/12/15 04:15:10;;;;;;;4.40;3.30;;;6.00;99.90;;;;;;4995519;28;20448;-82
2020/12/15 04:17:37;;;;;;;3.40;2.50;;;;;;;;;;4995345;28;20463;-83
2020/12/15 04:20:04;;;;;;;3.97;2.50;;;5.60;99.90;;;;;;4995555;28;20442;-82
2020/12/15 04:22:31;;;;;;;2.77;2.23;;;6.20;99.90;;;;;;4994283;28;20501;-83
2020/12/15 04:24:59;;;;;;;2.27;2.07;;;;;;;;;;4992411;28;20445;-83
2020/12/15 04:27:25;;;;;;;2.83;2.47;;;6.20;99.90;;;;;;4995365;28;20532;-83
2020/12/15 04:29:52;;;;;;;3.63;2.47;;;;;;;;;;4995136;28;20931;-83
2020/12/15 04:32:18;;;;;;;4.27;2.57;;;6.60;99.90;;;;;;4995112;28;20450;-82
2020/12/15 04:34:44;;;;;;;3.43;2.50;;;6.50;99.90;;;;;;4995220;28;20453;-83
2020/12/15 04:37:11;;;;;;;3.43;2.43;;;6.40;99.90;;;;;;4993957;28;20450;-83
2020/12/15 04:39:38;;;;;;;3.80;2.13;;;6.70;99.90;;;;;;4995055;28;20473;-83
2020/12/15 04:42:05;;;;;;;3.40;2.40;;;;;;;;;;4994936;28;21015;-82
2020/12/15 04:44:32;;;;;;;3.43;2.80;;;6.20;99.90;;;;;;4994945;28;20856;-83
2020/12/15 04:47:07;;;;;;;3.83;2.60;;;5.90;99.90;;;;;;4994809;28;20472;-83
2020/12/15 04:49:43;;;;;;;3.77;2.70;;;6.10;99.90;;;;;;4994838;28;20455;-84
2020/12/15 04:52:11;;;;;;;2.30;2.10;;;5.70;99.90;;;;;;4993698;28;20458;-83
2020/12/15 04:54:38;;;;;;;2.53;2.13;;;6.10;99.90;;;;;;4994863;28;20444;-83
2020/12/15 04:57:04;;;;;;;2.80;2.50;;;;;;;;;;4995925;28;20457;-82
2020/12/15 04:59:32;;;;;;;3.20;2.13;;;6.50;99.90;;;;;;4994481;28;20485;-83
2020/12/15 05:02:02;;;;;;;2.50;1.97;;;6.30;99.90;;;;;;4994535;28;21046;-83
2020/12/15 05:04:34;;;;;;;1.97;1.80;;;6.50;99.90;;;;;;4994613;28;20540;-83
2020/12/15 05:07:04;;;;;;;3.43;1.90;;;6.80;99.90;;;;;;4993356;28;20472;-83
2020/12/15 05:09:32;;;;;;;3.57;1.60;;;7.00;99.90;;;;;;4994329;28;20845;-83
2020/12/15 05:11:59;;;;;;;2.77;2.00;;;6.70;99.90;;;;;;4994395;28;20466;-82
2020/12/15 05:14:26;;;;;;;3.60;2.40;;;;;;;;;;4994356;28;20452;-83
2020/12/15 05:16:52;;;;;;;3.00;2.70;;;6.50;99.90;;;;;;4994435;28;20525;-83
2020/12/15 05:19:19;;;;;;;2.77;2.13;;;6.70;99.90;;;;;;4994478;28;20465;-83
2020/12/15 05:21:58;;;;;;;2.63;2.20;;;6.60;99.90;;;;;;4992911;28;20546;-82
2020/12/15 05:24:27;;;;;;;2.90;2.07;;;7.00;99.90;;;;;;4994214;28;20457;-84
2020/12/15 05:26:54;;;;;;;4.20;2.40;;;7.00;99.90;;;;;;4994470;28;20446;-83
2020/12/15 05:29:22;;;;;;;2.97;2.17;;;6.80;99.90;;;;;;4994207;28;20458;-84
2020/12/15 05:31:49;;;;;;;2.63;1.97;;;;;;;;;;4994081;28;20455;-83
2020/12/15 05:34:21;;;;;;;2.90;2.53;;;6.80;99.90;;;;;;4994153;28;20954;-83
2020/12/15 05:36:53;;;;;;;3.90;2.83;;;6.80;99.90;;;;;;4992926;28;20463;-84
2020/12/15 05:39:20;;;;;;;4.23;2.80;;;;;;;;;;4989011;28;20459;-84
2020/12/15 05:41:48;;;;;;;3.80;2.30;;;6.60;99.90;;;;;;4991341;28;20850;-85
2020/12/15 05:44:25;;;;;;;4.00;3.13;;;6.40;99.90;;;;;;4993982;28;20454;-84
2020/12/15 05:46:51;;;;;;;4.43;2.40;;;;;;;;;;4993849;28;20808;-84
2020/12/15 05:49:26;;;;;;;3.70;2.60;;;6.30;99.90;;;;;;4994840;28;20520;-83
2020/12/15 05:51:53;;;;;;;3.70;2.90;;;;;;;;;;4989685;28;20450;-84
2020/12/15 05:54:19;;;;;;;7.00;3.30;;;6.20;99.90;;;;;;4993723;28;20461;-83
2020/12/15 05:56:46;;;;;;;4.07;2.87;;;4.90;99.90;;;;;;4990841;28;20458;-84
2020/12/15 05:59:19;;;;;;;3.40;3.10;;;6.40;99.90;;;;;;4993771;28;20518;-83
2020/12/15 06:01:48;;;;;;;3.43;2.60;;;6.30;99.90;;;;;;4993530;28;20531;-84
2020/12/15 06:04:15;;;;;;;2.80;2.57;;;5.90;99.90;;;;;;4993711;28;20454;-83
2020/12/15 06:06:42;;;;;;;3.57;2.93;;;6.20;99.90;;;;;;4992236;28;20474;-82
2020/12/15 06:09:10;;;;;;;6.00;3.03;;;6.40;99.90;;;;;;4993427;28;20490;-84
2020/12/15 06:11:41;;;;;;;4.70;2.90;;;6.50;99.90;;;;;;4993554;28;20470;-84
2020/12/15 06:14:08;;;;;;;4.20;2.93;;;6.40;99.90;;;;;;4993600;28;20470;-84
2020/12/15 06:16:35;;;;;;;4.23;2.97;;;6.50;99.90;;;;;;4993420;28;20820;-83
2020/12/15 06:19:05;;;;;;;4.47;3.00;;;6.30;99.90;;;;;;4993626;28;20974;-83
2020/12/15 06:21:32;;;;;;;5.47;3.27;;;6.30;99.90;;;;;;4993129;28;20495;-83
2020/12/15 06:23:59;;;;;;;5.97;3.40;;;6.30;99.90;;;;;;4997532;28;20462;-83
2020/12/15 06:26:27;;;;;;;4.27;2.87;;;5.90;99.90;;;;;;4997444;28;20479;-82
2020/12/15 06:29:01;;;;;;;5.73;2.90;;;6.50;99.90;;;;;;4997433;28;20455;-83
2020/12/15 06:31:28;;;;;;;3.60;2.70;;;6.30;99.90;;;;;;4997509;28;20464;-83
2020/12/15 06:33:56;;;;;;;3.37;3.03;;;6.20;99.90;;;;;;4997374;28;20451;-84
2020/12/15 06:36:28;;;;;;;4.50;3.40;;;6.40;99.90;;;;;;4996276;28;20480;-85
2020/12/15 06:38:54;;;;;;;4.93;3.10;;;6.40;99.90;;;;;;4997316;28;20455;-83
2020/12/15 06:41:22;;;;;;;6.30;2.77;;;6.60;99.90;;;;;;4997107;28;20448;-83
2020/12/15 06:43:49;;;;;;;3.87;3.17;;;6.50;99.90;;;;;;4997251;28;20460;-83
2020/12/15 06:46:16;;;;;;;5.23;3.20;;;;;;;;;;4997199;28;20465;-82
2020/12/15 06:48:45;;;;;;;6.23;3.17;;;6.30;99.90;;;;;;4997113;28;20451;-83
2020/12/15 06:51:11;;;;;;;8.93;3.57;;;6.60;99.90;;;;;;4996098;28;20460;-82
2020/12/15 06:53:39;;;;;;;7.97;5.40;;;6.20;99.90;;;;;;4997265;28;20468;-83
2020/12/15 06:56:07;;;;;;;9.20;5.77;;;6.30;99.90;;;;;;4997168;28;20485;-83
2020/12/15 06:58:33;;;;;;;7.47;4.77;;;5.90;99.90;;;;;;4996971;28;20481;-82
2020/12/15 07:01:02;;;;;;;9.33;6.30;;;6.10;99.90;;;;;;4996852;28;20456;-82
2020/12/15 07:03:39;;;;;;;9.53;6.17;;;6.10;99.90;;;;;;4996801;28;20504;-84
2020/12/15 07:06:09;;;;;;;8.47;4.93;;;6.00;99.90;;;;;;4995549;28;20470;-83
2020/12/15 07:08:36;;;;;;;7.27;4.53;;;6.60;99.90;;;;;;4996589;28;20463;-83
2020/12/15 07:11:03;;;;;;;7.43;3.73;;;6.20;99.90;;;;;;4997192;28;20443;-82
2020/12/15 07:13:30;;;;;;;4.80;3.20;;;;;;;;;;4996378;28;20461;-83
2020/12/15 07:15:56;;;;;;;5.30;3.50;;;;;;;;;;5009091;28;20454;-82
2020/12/15 07:18:23;;;;;;;5.40;3.80;;;6.40;99.90;;;;;;5016228;28;20445;-82
2020/12/15 07:20:50;;;;;;;6.37;3.23;;;6.30;99.90;;;;;;5015696;28;20472;-83
2020/12/15 07:23:16;;;;;;;5.80;4.40;;;6.30;99.90;;;;;;4998344;28;20926;-84
2020/12/15 07:25:43;;;;;;;5.70;3.20;;;;;;;;;;4997418;28;20518;-83
2020/12/15 07:28:10;;;;;;;8.43;3.90;;;6.50;99.90;;;;;;4996789;28;20446;-84
2020/12/15 07:30:38;;;;;;;4.97;3.17;;;6.40;99.90;;;;;;4996421;28;20457;-83
2020/12/15 07:33:04;;;;;;;3.33;2.90;;;6.80;99.90;;;;;;4996565;28;20450;-84
2020/12/15 07:35:31;;;;;;;5.00;3.30;;;6.90;99.90;;;;;;4996590;28;20457;-85
2020/12/15 07:38:02;;;;;;;4.50;3.10;;;6.60;99.90;;;;;;4994984;28;20463;-83
2020/12/15 07:40:30;;;;;;;7.93;3.57;;;6.50;99.90;;;;;;4996429;28;20456;-84
2020/12/15 07:42:58;;;;;;;5.20;3.60;;;6.70;99.90;;;;;;4996535;28;20561;-85
2020/12/15 07:45:27;;;;;;;5.07;3.60;;;6.90;99.90;;;;;;4991057;28;20451;-84
2020/12/15 07:47:55;;;;;;;6.80;4.60;;;;;;;;;;4996019;28;20449;-84
2020/12/15 07:50:26;;;;;;;3.80;3.40;;;6.70;99.90;;;;;;4995964;28;20454;-84
2020/12/15 07:52:53;;;;;;;41.53;20.97;;;6.70;99.90;;;;;;4994743;28;20966;-83
2020/12/15 07:55:21;;;;;;;6.13;3.93;;;6.70;99.90;;;;;;4990637;28;21015;-83
2020/12/15 07:57:48;;;;;;;11.67;3.70;;;;;;;;;;4995913;28;20462;-84
2020/12/15 08:00:15;;;;;;;5.40;3.30;;;6.60;99.90;;;;;;4995830;28;20805;-84
2020/12/15 08:02:44;;;;;;;4.57;3.40;;;6.50;99.90;;;;;;4995670;28;20497;-84
2020/12/15 08:05:13;;;;;;;4.53;3.33;;;6.20;99.90;;;;;;4995651;28;20529;-84
2020/12/15 08:07:47;;;;;;;5.67;4.50;;;6.80;99.90;;;;;;4994510;28;20466;-86
2020/12/15 08:10:24;;;;;;;5.87;3.80;;;6.60;99.90;;;;;;4995694;28;20542;-85
2020/12/15 08:12:51;;;;;;;4.40;3.70;;;6.60;99.90;;;;;;4990476;28;20977;-84
2020/12/15 08:15:18;;;;;;;7.37;3.90;;;6.60;99.90;;;;;;4995399;28;20478;-84
2020/12/15 08:17:46;;;;;;;7.93;3.80;;;6.80;99.90;;;;;;4992558;28;20455;-84
2020/12/15 08:20:15;;;;;;;6.33;3.60;;;6.80;99.90;;;;;;4992714;28;20555;-84
2020/12/15 08:22:42;;;;;;;11.53;4.83;;;6.70;99.90;;;;;;4994214;28;20528;-86
2020/12/15 08:25:09;;;;;;;5.03;4.07;;;6.20;99.90;;;;;;4990208;28;20480;-86
2020/12/15 08:27:36;;;;;;;5.40;4.30;;;;;;;;;;4995426;28;20459;-85
2020/12/15 08:30:14;;;;;;;4.30;3.63;;;6.90;99.90;;;;;;4991532;28;20471;-83
2020/12/15 08:32:46;;;;;;;5.70;3.67;;;6.90;99.90;;;;;;4995041;28;20487;-84
2020/12/15 08:35:12;;;;;;;5.97;4.50;;;7.50;99.90;;;;;;4995180;28;20460;-84
2020/12/15 08:37:42;;;;;;;8.53;5.07;;;7.50;99.90;;;;;;4993914;28;20451;-83
2020/12/15 08:40:12;;;;;;;5.97;4.70;;;7.80;99.90;;;;;;4945282;28;20452;-85
2020/12/15 08:42:43;;;;;;;6.70;4.80;;;7.00;99.90;;;;;;4995084;28;20523;-84
2020/12/15 08:45:15;;;;;;;7.63;4.57;;;7.00;99.90;;;;;;4991585;28;20814;-85
2020/12/15 08:47:47;;;;;;;5.47;4.93;;;6.40;99.90;;;;;;4994965;28;20446;-85
2020/12/15 08:50:15;;;;;;;7.33;4.97;;;7.10;99.90;;;;;;4994881;28;20457;-84
2020/12/15 08:52:42;;;;;;;6.80;4.20;;;7.20;99.90;;;;;;4993640;28;20453;-84
2020/12/15 08:55:08;;;;;;;7.10;4.20;;;7.20;99.90;;;;;;4994735;28;20506;-85
2020/12/15 08:57:35;;;;;;;4.53;4.03;;;7.30;99.90;;;;;;4991743;28;20792;-85
2020/12/15 09:00:12;;;;;;;5.10;3.40;;;7.40;99.90;;;;;;4991543;28;20456;-86
2020/12/15 09:02:38;;;;;;;5.17;4.27;;;7.30;99.90;;;;;;4994441;28;21014;-84
2020/12/15 09:05:08;;;;;;;6.40;3.73;;;7.30;99.90;;;;;;4994581;28;20451;-85
2020/12/15 09:07:35;;;;;;;5.40;3.67;;;7.30;99.90;;;;;;4993314;28;20514;-85
2020/12/15 09:10:12;;;;;;;4.90;3.23;;;7.50;99.90;;;;;;4994486;28;20863;-85
2020/12/15 09:12:43;;;;;;;4.90;3.90;;;7.50;99.90;;;;;;4994500;28;20506;-86
2020/12/15 09:15:10;;;;;;;3.83;2.77;;;;;;;;;;4994436;28;20463;-83
2020/12/15 09:17:36;;;;;;;4.80;3.20;;;7.60;99.90;;;;;;4994356;28;20458;-84
2020/12/15 09:20:04;;;;;;;3.70;3.27;;;8.00;99.90;;;;;;4994106;28;20499;-85
2020/12/15 09:22:31;;;;;;;7.07;4.10;;;8.00;99.90;;;;;;4993173;28;20511;-85
2020/12/15 09:25:01;;;;;;;5.40;4.53;;;7.70;99.90;;;;;;4990294;28;20451;-84
2020/12/15 09:27:28;;;;;;;6.07;4.33;;;8.00;99.90;;;;;;4999848;28;20959;-84
2020/12/15 09:29:54;;;;;;;6.47;5.27;;;7.80;99.90;;;;;;4994022;28;20956;-83
2020/12/15 09:32:21;;;;;;;6.60;5.00;;;7.60;99.90;;;;;;4998452;28;20449;-84
2020/12/15 09:34:47;;;;;;;6.00;4.70;;;7.50;99.90;;;;;;4993918;28;20796;-83
2020/12/15 09:37:14;;;;;;;8.93;4.83;;;7.60;99.90;;;;;;4992867;28;20514;-83
2020/12/15 09:39:42;;;;;;;6.30;4.77;;;7.60;99.90;;;;;;4994180;28;20455;-84
2020/12/15 09:42:09;;;;;;;7.97;5.10;;;7.60;99.90;;;;;;4993912;28;20484;-83
2020/12/15 09:44:36;;;;;;;4.70;4.20;;;7.50;99.90;;;;;;4994221;28;20543;-83
2020/12/15 09:47:03;;;;;;;8.87;5.20;;;7.80;99.90;;;;;;4994012;28;20452;-83
2020/12/15 09:49:29;;;;;;;9.40;6.93;;;7.10;99.90;;;;;;4993761;28;20444;-83
2020/12/15 09:51:56;;;;;;;13.40;5.43;;;7.60;99.90;;;;;;4992584;28;20459;-84
2020/12/15 09:54:22;;;;;;;6.83;5.73;;;7.50;99.90;;;;;;4993954;28;20459;-83
2020/12/15 09:56:49;;;;;;;6.87;5.53;;;7.40;99.90;;;;;;4993147;28;20487;-84
2020/12/15 09:59:15;;;;;;;8.60;5.10;;;;;;;;;;4993826;28;20454;-85
2020/12/15 10:01:42;;;;;;;10.20;5.67;;;7.90;99.90;;;;;;4993831;28;20816;-83
2020/12/15 10:04:08;;;;;;;9.70;6.07;;;7.30;99.90;;;;;;4994070;28;20955;-84
2020/12/15 10:06:35;;;;;;;15.57;4.80;;;7.70;99.90;;;;;;4990068;28;20456;-84
2020/12/15 10:09:01;;;;;;;4.17;3.17;;;7.90;99.90;;;;;;4993602;28;20478;-85
2020/12/15 10:11:28;;;;;;;3.90;3.00;;;;;;;;;;4994174;28;20455;-84
2020/12/15 10:13:55;;;;;;;4.60;2.60;;;8.20;99.90;;;;;;4993631;28;20451;-83
2020/12/15 10:16:21;;;;;;;5.57;3.07;;;8.50;99.90;;;;;;4990702;28;20917;-82
2020/12/15 10:18:48;;;;;;;6.87;2.63;;;8.50;99.90;;;;;;4993421;28;20469;-83
2020/12/15 10:21:17;;;;;;;4.60;2.73;;;8.50;99.90;;;;;;5003450;28;20823;-85
2020/12/15 10:23:44;;;;;;;5.70;3.13;;;;;;;;;;5012714;28;20570;-82
2020/12/15 10:26:11;;;;;;;4.30;2.50;;;8.70;99.90;;;;;;5012771;28;20818;-85
2020/12/15 10:28:37;;;;;;;3.00;2.40;;;;;;;;;;5009788;28;20459;-85
2020/12/15 10:31:04;;;;;;;5.00;2.20;;;8.90;99.90;;;;;;5009644;28;20454;-84
2020/12/15 10:33:31;;;;;;;3.37;2.37;;;8.80;99.90;;;;;;5000359;28;20459;-83
2020/12/15 10:35:57;;;;;;;4.10;2.47;;;9.00;99.90;;;;;;5012682;28;20486;-84
2020/12/15 10:38:23;;;;;;;6.23;2.63;;;;;;;;;;5011317;28;20452;-82
2020/12/15 10:40:52;;;;;;;2.30;2.10;;;;;;;;;;5012495;28;20457;-81
2020/12/15 10:43:18;;;;;;;4.47;2.30;;;9.20;99.90;;;;;;5009186;28;20551;-82
2020/12/15 10:45:44;;;;;;;3.87;2.57;;;9.40;99.90;;;;;;5009209;28;20518;-83
2020/12/15 10:48:11;;;;;;;2.77;2.57;;;9.30;99.90;;;;;;5003197;28;20820;-82
2020/12/15 10:50:39;;;;;;;5.07;2.13;;;8.90;99.90;;;;;;4992714;28;20473;-82
2020/12/15 10:53:08;;;;;;;2.50;1.90;;;;;;;;;;4991629;28;20470;-85
2020/12/15 10:55:35;;;;;;;3.47;2.40;;;9.20;99.90;;;;;;4992897;28;20973;-84
2020/12/15 10:58:01;;;;;;;4.50;2.60;;;;;;;;;;4992715;28;20455;-84
2020/12/15 11:00:27;;;;;;;3.67;2.50;;;9.40;99.90;;;;;;4992340;28;20946;-83
2020/12/15 11:02:54;;;;;;;3.73;2.63;;;9.50;99.90;;;;;;5006777;28;20493;-84
2020/12/15 11:05:21;;;;;;;3.53;2.00;;;9.70;99.90;;;;;;4998889;28;20483;-84
2020/12/15 11:07:47;;;;;;;3.43;2.07;;;9.40;99.90;;;;;;4992360;28;20448;-84
2020/12/15 11:10:13;;;;;;;2.40;1.80;;;9.40;99.90;;;;;;4996223;28;20486;-84
2020/12/15 11:12:40;;;;;;;2.50;2.30;;;8.80;99.90;;;;;;4996213;28;20462;-84
2020/12/15 11:15:06;;;;;;;3.80;2.90;;;9.30;99.90;;;;;;4996243;28;20452;-82
2020/12/15 11:17:32;;;;;;;4.30;2.60;;;9.30;99.90;;;;;;4996391;28;21054;-83
2020/12/15 11:19:59;;;;;;;3.67;2.43;;;;;;;;;;4989585;28;20453;-83
2020/12/15 11:22:26;;;;;;;3.20;2.20;;;9.40;99.90;;;;;;4985247;28;20493;-84
2020/12/15 11:24:52;;;;;;;3.00;2.67;;;9.20;99.90;;;;;;4976583;28;20543;-87
2020/12/15 11:27:19;;;;;;;4.27;2.30;;;;;;;;;;4984903;28;20452;-84
2020/12/15 11:29:46;;;;;;;3.23;2.93;;;;;;;;;;4996005;28;20460;-84
2020/12/15 11:32:12;;;;;;;4.57;2.73;;;9.60;99.90;;;;;;4995918;28;20471;-83
2020/12/15 11:34:38;;;;;;;2.80;2.10;;;;;;;;;;4995969;28;20519;-84
2020/12/15 11:37:09;;;;;;;4.70;2.43;;;;;;;;;;4994515;28;20480;-83
2020/12/15 11:39:36;;;;;;;2.50;2.30;;;9.00;99.90;;;;;;4995843;28;20455;-83
2020/12/15 11:42:06;;;;;;;6.03;3.27;;;9.60;99.90;;;;;;4995797;28;21049;-83
2020/12/15 11:44:33;;;;;;;4.00;3.07;;;9.60;99.90;;;;;;4995930;28;20514;-82
2020/12/15 11:46:59;;;;;;;6.20;3.33;;;9.80;99.90;;;;;;4995724;28;20454;-83
2020/12/15 11:49:26;;;;;;;4.77;3.13;;;9.60;99.90;;;;;;4995639;28;20787;-84
2020/12/15 11:51:53;;;;;;;5.07;3.20;;;9.80;99.90;;;;;;4975742;28;20457;-83
2020/12/15 11:54:19;;;;;;;4.30;3.90;;;9.90;99.90;;;;;;4976140;28;20514;-83
2020/12/15 11:56:47;;;;;;;7.43;4.00;;;9.90;99.90;;;;;;4975930;28;20493;-83
2020/12/15 11:59:13;;;;;;;4.90;3.33;;;9.90;99.90;;;;;;4975920;28;20822;-83
2020/12/15 12:01:40;;;;;;;5.87;4.13;;;9.90;99.90;;;;;;4975941;28;20505;-83
2020/12/15 12:04:06;;;;;;;6.33;4.57;;;9.80;99.90;;;;;;4985396;28;20831;-84
2020/12/15 12:06:32;;;;;;;5.87;3.87;;;10.10;99.90;;;;;;4975214;28;20527;-84
2020/12/15 12:08:58;;;;;;;6.23;4.40;;;10.10;99.90;;;;;;4975646;28;20495;-83
2020/12/15 12:11:25;;;;;;;6.10;3.83;;;;;;;;;;4976129;28;20492;-83
2020/12/15 12:13:52;;;;;;;5.10;3.80;;;10.20;99.90;;;;;;4987211;28;20453;-83
2020/12/15 12:16:19;;;;;;;5.10;3.47;;;;;;;;;;4976000;28;20872;-85
2020/12/15 12:18:46;;;;;;;5.77;3.90;;;10.40;99.90;;;;;;4975664;28;20451;-84
2020/12/15 12:21:13;;;;;;;3.83;2.90;;;;;;;;;;4975221;28;20958;-83
2020/12/15 12:23:40;;;;;;;4.10;2.93;;;10.50;99.90;;;;;;4978141;28;20845;-85
2020/12/15 12:26:07;;;;;;;5.13;3.43;;;10.70;99.90;;;;;;4977690;28;20454;-87
2020/12/15 12:28:33;;;;;;;6.33;2.80;;;10.40;99.90;;;;;;4976576;28;20442;-86
2020/12/15 12:31:00;;;;;;;5.47;3.20;;;10.70;99.90;;;;;;4976048;28;20938;-85
2020/12/15 12:33:26;;;;;;;5.40;3.43;;;10.70;99.90;;;;;;4975966;28;20467;-84
2020/12/15 12:35:53;;;;;;;5.00;3.83;;;10.90;99.90;;;;;;4975856;28;20456;-86
2020/12/15 12:38:20;;;;;;;4.90;3.07;;;;;;;;;;4994092;28;20457;-84
2020/12/15 12:40:47;;;;;;;6.70;3.60;;;10.50;99.90;;;;;;4995168;28;20473;-83
2020/12/15 12:43:13;;;;;;;5.27;3.13;;;10.10;99.90;;;;;;4995016;28;20500;-86
2020/12/15 12:45:40;;;;;;;6.63;4.10;;;10.00;99.90;;;;;;4995025;28;20466;-85
2020/12/15 12:48:08;;;;;;;4.77;3.10;;;9.90;99.90;;;;;;4994962;28;20470;-85
2020/12/15 12:50:35;;;;;;;6.10;3.67;;;10.60;99.90;;;;;;4992113;28;20451;-85
2020/12/15 12:53:01;;;;;;;9.47;3.60;;;10.20;99.90;;;;;;4993649;28;20447;-83
2020/12/15 12:55:27;;;;;;;5.53;3.80;;;10.00;99.90;;;;;;4994774;28;20448;-83
2020/12/15 12:57:54;;;;;;;6.07;3.47;;;10.30;99.90;;;;;;4995134;28;20443;-85
2020/12/15 13:00:21;;;;;;;4.50;3.00;;;;;;;;;;4994862;28;20465;-86
2020/12/15 13:02:47;;;;;;;8.90;3.70;;;;;;;;;;4994805;28;20840;-85
2020/12/15 13:05:15;;;;;;;4.40;3.70;;;10.00;99.90;;;;;;4994545;28;20526;-84
2020/12/15 13:07:46;;;;;;;4.10;3.50;;;10.10;99.90;;;;;;4993020;28;20542;-86
2020/12/15 13:10:14;;;;;;;6.80;3.20;;;10.20;99.90;;;;;;4994536;28;20524;-84
2020/12/15 13:12:40;;;;;;;4.30;3.50;;;10.10;99.90;;;;;;4994622;28;20490;-84
2020/12/15 13:15:06;;;;;;;3.63;3.17;;;10.20;99.90;;;;;;4994437;28;20465;-84
2020/12/15 13:17:33;;;;;;;4.53;3.50;;;;;;;;;;4994377;28;20982;-86
2020/12/15 13:19:59;;;;;;;3.10;2.57;;;;;;;;;;4994391;28;20822;-86